Time;durP1;ratioP1;P1;durP2;ratioP2;P2;SDS_P1;SDS_P2;PMS_P1;PMS_P2;Temp;Humidity;BMP_temperature;BMP_pressure;BME280_temperature;BME280_humidity;BME280_pressure;Samples;Min_cycle;Max_cycle;Signal;HPM_P1;HPM_P2
2022/06/30 00:02:08;;;;;;;2.80;2.60;;;25.60;75.70;;;;;;5083942;28;20547;-61
2022/06/30 00:04:39;;;;;;;2.60;2.40;;;25.60;74.50;;;;;;5083391;28;20507;-61
2022/06/30 00:07:10;;;;;;;2.60;2.40;;;25.60;76.70;;;;;;5083425;28;20452;-61
2022/06/30 00:09:41;;;;;;;2.40;2.20;;;25.70;74.20;;;;;;5084463;28;20459;-61
2022/06/30 00:12:12;;;;;;;2.80;2.60;;;25.60;76.60;;;;;;5081805;28;20466;-61
2022/06/30 00:14:43;;;;;;;2.30;2.10;;;25.60;76.10;;;;;;5082262;28;20473;-61
2022/06/30 00:17:16;;;;;;;3.27;2.07;;;25.50;77.60;;;;;;5083186;28;20459;-61
2022/06/30 00:19:46;;;;;;;2.40;2.30;;;25.50;78.50;;;;;;5083385;28;20502;-61
2022/06/30 00:22:17;;;;;;;2.50;2.30;;;25.40;77.50;;;;;;5082826;28;20476;-61
2022/06/30 00:24:48;;;;;;;2.10;2.00;;;25.40;78.90;;;;;;5082612;28;20550;-62
2022/06/30 00:27:19;;;;;;;2.67;2.30;;;25.40;80.10;;;;;;5083176;28;20761;-62
2022/06/30 00:29:50;;;;;;;2.50;2.30;;;25.40;79.50;;;;;;5080698;28;20467;-61
2022/06/30 00:32:22;;;;;;;2.47;2.27;;;25.30;80.40;;;;;;5079553;28;20486;-61
2022/06/30 00:34:56;;;;;;;2.10;2.00;;;25.40;81.10;;;;;;5082767;28;20507;-62
2022/06/30 00:37:27;;;;;;;2.10;2.00;;;25.60;81.50;;;;;;5082384;28;20451;-61
2022/06/30 00:39:58;;;;;;;2.20;2.10;;;25.40;78.90;;;;;;5085248;28;20491;-61
2022/06/30 00:42:31;;;;;;;2.00;1.90;;;25.10;81.60;;;;;;5079364;28;20447;-62
2022/06/30 00:45:02;;;;;;;2.10;1.93;;;24.90;82.60;;;;;;5082429;28;20464;-61
2022/06/30 00:47:34;;;;;;;2.77;2.57;;;24.90;82.90;;;;;;5083425;28;20456;-61
2022/06/30 00:50:06;;;;;;;1.80;1.70;;;24.80;83.60;;;;;;5080691;28;20471;-61
2022/06/30 00:52:38;;;;;;;2.10;2.00;;;24.90;83.70;;;;;;5081305;28;20463;-61
2022/06/30 00:55:09;;;;;;;2.43;2.23;;;24.90;83.50;;;;;;5081821;28;20506;-61
2022/06/30 00:57:43;;;;;;;2.07;1.97;;;25.00;83.40;;;;;;5065548;28;20444;-61
2022/06/30 01:00:15;;;;;;;2.30;1.97;;;24.90;84.40;;;;;;5081623;28;20498;-62
2022/06/30 01:02:49;;;;;;;2.20;2.00;;;24.80;83.40;;;;;;5080514;28;20859;-62
2022/06/30 01:05:22;;;;;;;2.63;2.40;;;24.50;84.20;;;;;;5075338;28;20464;-63
2022/06/30 01:07:55;;;;;;;2.90;2.70;;;24.30;86.20;;;;;;5080910;28;20466;-64
2022/06/30 01:13:14;;;;;;;2.30;2.10;;;24.00;86.60;;;;;;5082288;28;20447;-63
2022/06/30 01:15:45;;;;;;;2.07;1.90;;;24.10;87.80;;;;;;5073414;28;20473;-62
2022/06/30 01:18:18;;;;;;;1.97;1.87;;;24.20;87.10;;;;;;5081224;28;20479;-63
2022/06/30 01:20:49;;;;;;;2.00;1.80;;;23.90;86.30;;;;;;5065082;28;20587;-65
2022/06/30 01:23:21;;;;;;;1.80;1.70;;;23.70;87.50;;;;;;5080796;28;20459;-64
2022/06/30 01:25:53;;;;;;;2.10;1.93;;;23.60;88.10;;;;;;5080421;28;20491;-66
2022/06/30 01:28:24;;;;;;;2.57;2.07;;;23.50;87.50;;;;;;5081343;28;20526;-63
2022/06/30 01:30:55;;;;;;;1.90;1.80;;;23.50;89.10;;;;;;5080779;28;20456;-64
2022/06/30 01:33:25;;;;;;;2.33;2.13;;;23.30;89.40;;;;;;5080838;28;20495;-63
2022/06/30 01:35:57;;;;;;;2.33;2.13;;;23.30;90.40;;;;;;5079798;28;20482;-62
2022/06/30 01:38:29;;;;;;;2.23;2.10;;;23.40;90.30;;;;;;5077015;28;20470;-65
2022/06/30 01:41:03;;;;;;;1.83;1.73;;;23.40;90.20;;;;;;5074836;28;20487;-63
2022/06/30 01:43:34;;;;;;;2.03;1.83;;;23.40;90.50;;;;;;5081311;28;20434;-62
2022/06/30 01:46:05;;;;;;;2.47;2.30;;;23.40;90.20;;;;;;5080887;28;20923;-64
2022/06/30 01:48:36;;;;;;;2.00;1.90;;;23.30;90.20;;;;;;5080296;28;20498;-62
2022/06/30 01:51:10;;;;;;;2.20;2.00;;;23.20;90.10;;;;;;5080087;28;20478;-61
2022/06/30 01:53:43;;;;;;;2.23;2.03;;;23.20;90.80;;;;;;5081287;28;20463;-64
2022/06/30 01:56:14;;;;;;;2.70;2.10;;;23.00;90.90;;;;;;5080046;28;20927;-63
2022/06/30 01:58:45;;;;;;;2.90;2.67;;;22.90;91.60;;;;;;5081824;28;20851;-62
2022/06/30 02:01:16;;;;;;;2.80;2.60;;;22.90;91.90;;;;;;5079992;28;20495;-63
2022/06/30 02:03:56;;;;;;;30.40;23.80;;;22.90;91.90;;;;;;5081194;28;20843;-64
2022/06/30 02:06:30;;;;;;;3.37;3.07;;;22.80;91.80;;;;;;5080261;28;20528;-64
2022/06/30 02:09:02;;;;;;;2.13;2.03;;;22.60;92.60;;;;;;5080506;28;21100;-64
2022/06/30 02:11:33;;;;;;;2.53;2.33;;;22.50;92.10;;;;;;5067611;28;20906;-63
2022/06/30 02:14:04;;;;;;;2.60;2.40;;;22.50;92.60;;;;;;5080997;28;20459;-63
2022/06/30 02:16:35;;;;;;;2.40;2.20;;;22.40;92.90;;;;;;5080827;28;20439;-64
2022/06/30 02:19:06;;;;;;;1.93;1.83;;;22.30;92.60;;;;;;5080780;28;20541;-65
2022/06/30 02:21:38;;;;;;;2.03;1.93;;;22.20;92.80;;;;;;5079706;28;20470;-65
2022/06/30 02:24:10;;;;;;;2.10;2.00;;;22.00;92.90;;;;;;5080065;28;20488;-66
2022/06/30 02:26:41;;;;;;;2.13;1.93;;;22.00;93.60;;;;;;5080232;28;20467;-66
2022/06/30 02:29:12;;;;;;;1.70;1.60;;;21.90;93.60;;;;;;5081620;28;20463;-66
2022/06/30 02:31:42;;;;;;;2.07;1.90;;;21.70;94.20;;;;;;5080066;28;20546;-66
2022/06/30 02:34:13;;;;;;;2.43;2.23;;;21.60;94.40;;;;;;5081198;28;22179;-67
2022/06/30 02:36:44;;;;;;;2.40;2.20;;;21.50;94.60;;;;;;5079750;28;20466;-66
2022/06/30 02:39:16;;;;;;;2.37;2.17;;;21.30;94.50;;;;;;5084558;28;20463;-66
2022/06/30 02:41:47;;;;;;;2.20;2.10;;;21.30;94.70;;;;;;5084761;28;20433;-67
2022/06/30 02:44:18;;;;;;;2.17;1.70;;;21.20;94.90;;;;;;5083990;28;20558;-67
2022/06/30 02:46:50;;;;;;;2.10;1.90;;;21.10;95.40;;;;;;5084617;28;20466;-67
2022/06/30 02:49:21;;;;;;;2.60;2.20;;;21.10;95.30;;;;;;5083654;28;20562;-67
2022/06/30 02:51:52;;;;;;;2.17;2.03;;;21.00;95.20;;;;;;5064845;28;20458;-65
2022/06/30 02:54:25;;;;;;;2.20;1.97;;;20.90;95.20;;;;;;5077728;28;20438;-66
2022/06/30 02:56:55;;;;;;;2.23;1.90;;;20.80;95.30;;;;;;5085581;28;20410;-66
2022/06/30 02:59:27;;;;;;;1.70;1.60;;;20.70;95.80;;;;;;5085762;28;20447;-66
2022/06/30 03:01:58;;;;;;;2.33;2.13;;;20.60;95.90;;;;;;5083579;28;20483;-67
2022/06/30 03:04:29;;;;;;;2.13;1.90;;;20.50;96.30;;;;;;5084337;28;20465;-66
2022/06/30 03:07:00;;;;;;;1.80;1.70;;;20.40;96.60;;;;;;5084514;28;20433;-66
2022/06/30 03:09:33;;;;;;;2.40;2.30;;;20.40;96.30;;;;;;5083471;28;20463;-65
2022/06/30 03:12:03;;;;;;;1.87;1.73;;;20.30;96.40;;;;;;5083975;28;20464;-65
2022/06/30 03:14:37;;;;;;;2.17;1.97;;;20.20;96.80;;;;;;5083943;28;20465;-66
2022/06/30 03:17:08;;;;;;;1.70;1.60;;;20.20;96.90;;;;;;5081163;28;20430;-66
2022/06/30 03:19:39;;;;;;;1.70;1.60;;;20.00;96.30;;;;;;5079721;28;20440;-66
2022/06/30 03:22:10;;;;;;;2.50;2.30;;;20.00;96.40;;;;;;5082161;28;20434;-66
2022/06/30 03:24:42;;;;;;;2.10;1.90;;;19.90;96.50;;;;;;5082408;28;20583;-65
2022/06/30 03:27:13;;;;;;;1.70;1.60;;;19.80;96.50;;;;;;5084244;28;20451;-66
2022/06/30 03:29:44;;;;;;;1.70;1.60;;;19.70;96.60;;;;;;5084096;28;20475;-66
2022/06/30 03:32:15;;;;;;;2.10;1.90;;;19.70;97.00;;;;;;5082505;28;20460;-66
2022/06/30 03:34:46;;;;;;;2.20;2.00;;;19.70;96.90;;;;;;5083955;28;20426;-66
2022/06/30 03:37:16;;;;;;;1.50;1.40;;;19.70;97.10;;;;;;5079557;28;20459;-66
2022/06/30 03:39:49;;;;;;;1.73;1.63;;;19.60;97.10;;;;;;5077833;28;20414;-65
2022/06/30 03:42:20;;;;;;;1.90;1.80;;;19.50;97.10;;;;;;5078610;28;20455;-65
2022/06/30 03:44:50;;;;;;;3.10;2.17;;;19.40;97.20;;;;;;5084602;28;20463;-65
2022/06/30 03:47:21;;;;;;;2.60;1.80;;;19.30;97.90;;;;;;5083245;28;20487;-66
2022/06/30 03:49:52;;;;;;;1.53;1.43;;;19.20;98.40;;;;;;5082923;28;20466;-65
2022/06/30 03:52:23;;;;;;;1.80;1.70;;;19.20;98.60;;;;;;5079212;28;20445;-66
2022/06/30 03:54:56;;;;;;;1.73;1.63;;;19.10;98.80;;;;;;5078609;28;20427;-66
2022/06/30 03:57:26;;;;;;;1.83;1.73;;;19.00;99.30;;;;;;5076533;28;20560;-65
2022/06/30 03:59:57;;;;;;;2.10;1.90;;;19.00;99.70;;;;;;5077413;28;20541;-66
2022/06/30 04:02:28;;;;;;;1.70;1.60;;;18.90;99.90;;;;;;5076407;28;20463;-66
2022/06/30 04:04:59;;;;;;;1.97;1.53;;;18.80;99.90;;;;;;5074639;28;21108;-66
2022/06/30 04:07:30;;;;;;;1.90;1.70;;;18.80;99.90;;;;;;5077367;28;22256;-65
2022/06/30 04:10:02;;;;;;;2.10;1.90;;;18.70;99.90;;;;;;5076112;28;20519;-66
2022/06/30 04:12:34;;;;;;;1.60;1.50;;;18.70;99.90;;;;;;5076536;28;20534;-66
2022/06/30 04:15:05;;;;;;;2.50;1.87;;;18.60;99.90;;;;;;5075214;28;20462;-66
2022/06/30 04:17:36;;;;;;;1.57;1.47;;;18.60;99.90;;;;;;5076339;28;20442;-66
2022/06/30 04:20:15;;;;;;;2.37;2.17;;;18.60;99.90;;;;;;5075743;28;20433;-66
2022/06/30 04:22:47;;;;;;;1.73;1.63;;;18.40;99.90;;;;;;5074172;28;20445;-66
2022/06/30 04:25:21;;;;;;;1.87;1.70;;;18.40;99.90;;;;;;5075751;28;20498;-64
2022/06/30 04:27:53;;;;;;;1.53;1.40;;;18.40;99.90;;;;;;5076104;28;20431;-65
2022/06/30 04:33:09;;;;;;;2.70;1.90;;;18.30;99.90;;;;;;5076184;28;20824;-65
2022/06/30 04:35:40;;;;;;;1.60;1.50;;;18.30;99.90;;;;;;5081219;28;20467;-64
2022/06/30 04:38:10;;;;;;;1.70;1.40;;;18.30;99.90;;;;;;5082239;28;20470;-65
2022/06/30 04:43:30;;;;;;;1.50;1.40;;;18.20;99.90;;;;;;5076166;28;20438;-65
2022/06/30 04:46:01;;;;;;;1.83;1.70;;;18.10;99.90;;;;;;5080653;28;20482;-66
2022/06/30 04:48:32;;;;;;;1.60;1.50;;;18.10;99.90;;;;;;5083520;28;20482;-65
2022/06/30 04:51:03;;;;;;;1.93;1.60;;;18.10;99.90;;;;;;5080983;28;20445;-65
2022/06/30 04:53:33;;;;;;;1.63;1.53;;;18.10;99.90;;;;;;5082259;28;20451;-65
2022/06/30 04:56:06;;;;;;;2.40;1.97;;;18.00;99.90;;;;;;5081858;28;20448;-66
2022/06/30 04:58:37;;;;;;;1.57;1.47;;;17.90;99.90;;;;;;5083198;28;20448;-65
2022/06/30 05:01:12;;;;;;;1.50;1.40;;;17.90;99.90;;;;;;5081092;28;20496;-66
2022/06/30 05:03:43;;;;;;;1.93;1.83;;;17.90;99.90;;;;;;5079474;28;20434;-65
2022/06/30 05:06:13;;;;;;;1.63;1.53;;;17.90;99.90;;;;;;5081868;28;20470;-65
2022/06/30 05:08:44;;;;;;;1.50;1.40;;;17.80;99.90;;;;;;5082396;28;20442;-65
2022/06/30 05:11:17;;;;;;;1.50;1.40;;;17.80;99.90;;;;;;5081732;28;20498;-65
2022/06/30 05:13:47;;;;;;;1.50;1.40;;;17.70;99.90;;;;;;5078237;28;20451;-65
2022/06/30 05:16:18;;;;;;;1.60;1.50;;;17.70;99.90;;;;;;5074912;28;20577;-66
2022/06/30 05:18:50;;;;;;;2.97;1.27;;;17.70;99.90;;;;;;5074793;28;20513;-64
2022/06/30 05:21:20;;;;;;;1.60;1.50;;;17.70;99.90;;;;;;5073538;28;21373;-65
2022/06/30 05:26:37;;;;;;;2.17;1.70;;;17.60;99.90;;;;;;5074403;28;20472;-64
2022/06/30 05:29:07;;;;;;;1.70;1.50;;;17.50;99.90;;;;;;5075152;28;20452;-64
2022/06/30 05:31:38;;;;;;;1.70;1.50;;;17.50;99.90;;;;;;5074681;28;20436;-62
2022/06/30 05:34:09;;;;;;;1.23;1.23;;;17.40;99.90;;;;;;5074989;28;20422;-63
2022/06/30 05:36:40;;;;;;;1.40;1.30;;;17.40;99.90;;;;;;5075131;28;20433;-63
2022/06/30 05:39:11;;;;;;;1.23;1.10;;;17.30;99.90;;;;;;5075195;28;20514;-63
2022/06/30 05:41:44;;;;;;;1.50;1.40;;;17.30;99.90;;;;;;5073544;28;20527;-63
2022/06/30 05:44:14;;;;;;;1.63;1.53;;;17.20;99.90;;;;;;5073995;28;20422;-63
2022/06/30 05:46:46;;;;;;;1.63;1.53;;;17.20;99.90;;;;;;5075445;28;20539;-62
2022/06/30 05:49:17;;;;;;;1.77;1.67;;;17.20;99.90;;;;;;5081567;28;20445;-62
2022/06/30 05:51:47;;;;;;;3.50;1.43;;;17.00;99.90;;;;;;5080413;28;20455;-63
2022/06/30 05:54:18;;;;;;;1.27;1.20;;;17.10;99.90;;;;;;5081559;28;20468;-64
2022/06/30 05:56:51;;;;;;;1.67;1.57;;;17.00;99.90;;;;;;5072536;28;20467;-62
2022/06/30 05:59:22;;;;;;;2.33;1.60;;;16.90;99.90;;;;;;5078021;28;20454;-61
2022/06/30 06:01:52;;;;;;;1.70;1.60;;;16.90;99.90;;;;;;5081259;28;20490;-62
2022/06/30 06:04:26;;;;;;;1.47;1.37;;;16.80;99.90;;;;;;5079195;28;20449;-62
2022/06/30 06:06:57;;;;;;;1.50;1.13;;;16.80;99.90;;;;;;5080620;28;20483;-62
2022/06/30 06:09:28;;;;;;;1.60;1.40;;;16.70;99.90;;;;;;5080437;28;20448;-62
2022/06/30 06:12:00;;;;;;;1.63;1.53;;;16.70;99.90;;;;;;5075719;28;20834;-62
2022/06/30 06:14:43;;;;;;;1.47;1.37;;;16.70;99.90;;;;;;5075740;28;20524;-62
2022/06/30 06:17:14;;;;;;;1.63;1.40;;;16.60;99.90;;;;;;5074810;28;20622;-62
2022/06/30 06:19:44;;;;;;;1.63;1.53;;;16.60;99.90;;;;;;5074830;28;20456;-62
2022/06/30 06:22:15;;;;;;;1.60;1.50;;;16.50;99.90;;;;;;5075717;28;20479;-62
2022/06/30 06:24:46;;;;;;;1.40;1.30;;;16.50;99.90;;;;;;5074583;28;20489;-62
2022/06/30 06:27:19;;;;;;;1.43;1.30;;;16.50;99.90;;;;;;5074686;28;20546;-62
2022/06/30 06:29:49;;;;;;;1.63;1.53;;;16.40;99.90;;;;;;5075648;28;20493;-62
2022/06/30 06:32:23;;;;;;;1.43;1.33;;;16.40;99.90;;;;;;5076078;28;20489;-62
2022/06/30 06:34:54;;;;;;;1.47;1.37;;;16.30;99.90;;;;;;5076431;28;20458;-62
2022/06/30 06:37:27;;;;;;;1.20;1.10;;;16.30;99.90;;;;;;5074346;28;20943;-62
2022/06/30 06:39:59;;;;;;;0.97;0.97;;;16.20;99.90;;;;;;5074871;28;20455;-62
2022/06/30 06:42:31;;;;;;;1.27;1.00;;;16.30;99.90;;;;;;5074524;28;20490;-62
2022/06/30 06:45:02;;;;;;;1.17;1.00;;;16.20;99.90;;;;;;5076037;28;20448;-62
2022/06/30 06:47:33;;;;;;;1.60;1.50;;;16.20;99.90;;;;;;5079203;28;20462;-62
2022/06/30 06:50:03;;;;;;;1.53;1.03;;;16.10;99.90;;;;;;5080377;28;20455;-62
2022/06/30 06:52:43;;;;;;;1.70;1.60;;;16.10;99.90;;;;;;5080214;28;20473;-62
2022/06/30 06:55:17;;;;;;;2.37;1.60;;;16.00;99.90;;;;;;5080950;28;21050;-63
2022/06/30 06:57:53;;;;;;;1.63;1.40;;;16.00;99.90;;;;;;5080917;28;20464;-62
2022/06/30 07:00:26;;;;;;;1.43;1.33;;;16.00;99.90;;;;;;5080804;28;20454;-63
2022/06/30 07:02:57;;;;;;;1.90;1.60;;;15.90;99.90;;;;;;5079710;28;20503;-64
2022/06/30 07:05:28;;;;;;;1.37;1.27;;;15.90;99.90;;;;;;5079044;28;20475;-64
2022/06/30 07:08:00;;;;;;;2.50;1.30;;;15.90;99.90;;;;;;5080764;28;20463;-63
2022/06/30 07:10:31;;;;;;;1.43;1.33;;;15.90;99.90;;;;;;5079605;28;20565;-63
2022/06/30 07:13:08;;;;;;;1.73;1.50;;;15.80;99.90;;;;;;5079305;28;20463;-64
2022/06/30 07:15:38;;;;;;;2.57;1.70;;;15.80;99.90;;;;;;5077870;28;20573;-63
2022/06/30 07:18:09;;;;;;;1.30;1.17;;;15.70;99.90;;;;;;5073981;28;20474;-63
2022/06/30 07:20:40;;;;;;;1.30;1.20;;;15.70;99.90;;;;;;5072355;28;20459;-61
2022/06/30 07:23:11;;;;;;;1.83;1.60;;;15.70;99.90;;;;;;5075034;28;20469;-62
2022/06/30 07:26:07;;;;;;;2.70;1.60;;;15.70;99.90;;;;;;5077685;28;20455;-63
2022/06/30 07:28:40;;;;;;;1.30;1.20;;;15.70;99.90;;;;;;5077608;28;20442;-62
2022/06/30 07:31:23;;;;;;;1.80;1.47;;;15.60;99.90;;;;;;5077422;28;20513;-63
2022/06/30 07:33:54;;;;;;;1.43;1.27;;;15.50;99.90;;;;;;5077275;28;20463;-62
2022/06/30 07:36:25;;;;;;;1.33;1.23;;;15.60;99.90;;;;;;5075935;28;20462;-62
2022/06/30 07:38:56;;;;;;;1.50;1.40;;;15.50;99.90;;;;;;5076908;28;20497;-62
2022/06/30 07:41:27;;;;;;;1.40;1.30;;;15.40;99.90;;;;;;5076642;28;20532;-62
2022/06/30 07:44:02;;;;;;;2.20;1.40;;;15.40;99.90;;;;;;5076832;28;20495;-62
2022/06/30 07:46:33;;;;;;;1.53;1.43;;;15.30;99.90;;;;;;5078938;28;20772;-63
2022/06/30 07:49:04;;;;;;;1.30;1.20;;;15.40;99.90;;;;;;5078160;28;20485;-62
2022/06/30 07:51:35;;;;;;;1.33;1.23;;;15.40;99.90;;;;;;5077430;28;20471;-62
2022/06/30 07:54:10;;;;;;;1.50;1.37;;;15.30;99.90;;;;;;5082962;28;20517;-62
2022/06/30 07:56:41;;;;;;;2.80;1.47;;;15.20;99.90;;;;;;5083795;28;20450;-62
2022/06/30 07:59:14;;;;;;;1.37;1.27;;;15.20;99.90;;;;;;5082526;28;20469;-62
2022/06/30 08:01:46;;;;;;;2.00;1.77;;;15.20;99.90;;;;;;5078404;28;20527;-62
2022/06/30 08:04:17;;;;;;;1.60;1.40;;;15.10;99.90;;;;;;5081937;28;20609;-62
2022/06/30 08:06:49;;;;;;;1.90;1.80;;;15.20;99.90;;;;;;5082618;28;20502;-62
2022/06/30 08:09:22;;;;;;;1.50;1.40;;;15.20;99.90;;;;;;5083622;28;20914;-62
2022/06/30 08:11:54;;;;;;;1.20;1.03;;;15.20;99.90;;;;;;5082014;28;20923;-62
2022/06/30 08:14:27;;;;;;;1.57;1.47;;;15.10;99.90;;;;;;5082982;28;20463;-62
2022/06/30 08:16:58;;;;;;;2.10;1.60;;;15.10;99.90;;;;;;5082955;28;20455;-62
2022/06/30 08:19:29;;;;;;;1.30;1.20;;;15.10;99.90;;;;;;5083518;28;20507;-62
2022/06/30 08:22:00;;;;;;;1.40;1.30;;;15.10;99.90;;;;;;5081574;28;20470;-62
2022/06/30 08:24:32;;;;;;;1.50;1.40;;;15.00;99.90;;;;;;5082554;28;20507;-62
2022/06/30 08:27:03;;;;;;;1.20;1.20;;;15.10;99.90;;;;;;5083536;28;20795;-62
2022/06/30 08:29:35;;;;;;;1.90;1.70;;;15.00;99.90;;;;;;5082271;28;20498;-62
2022/06/30 08:32:07;;;;;;;1.70;1.60;;;15.00;99.90;;;;;;5075789;28;21182;-62
2022/06/30 08:34:38;;;;;;;1.93;1.50;;;15.00;99.90;;;;;;5081812;28;20463;-63
2022/06/30 08:37:09;;;;;;;1.97;1.50;;;15.00;99.90;;;;;;5081028;28;20562;-62
2022/06/30 08:42:28;;;;;;;2.50;1.60;;;15.00;99.90;;;;;;5081641;28;20466;-62
2022/06/30 08:45:17;;;;;;;1.33;1.23;;;15.00;99.90;;;;;;5081902;28;20459;-62
2022/06/30 08:47:49;;;;;;;1.57;1.40;;;14.90;99.90;;;;;;5077769;28;20459;-62
2022/06/30 08:50:20;;;;;;;1.40;1.30;;;14.90;99.90;;;;;;5074279;28;20486;-63
2022/06/30 08:52:53;;;;;;;1.60;1.50;;;14.80;99.90;;;;;;5075367;28;20459;-62
2022/06/30 08:55:28;;;;;;;1.53;1.43;;;14.80;99.90;;;;;;5074102;28;20565;-62
2022/06/30 08:58:04;;;;;;;1.40;1.30;;;14.80;99.90;;;;;;5075328;28;20519;-62
2022/06/30 09:00:38;;;;;;;1.63;0.90;;;14.70;99.90;;;;;;5074594;28;20470;-62
2022/06/30 09:03:09;;;;;;;1.33;1.23;;;14.70;99.90;;;;;;5075464;28;20540;-63
2022/06/30 09:05:41;;;;;;;1.63;1.30;;;14.70;99.90;;;;;;5074012;28;20810;-63
2022/06/30 09:08:12;;;;;;;1.30;1.20;;;14.70;99.90;;;;;;5076052;28;20458;-62
2022/06/30 09:10:54;;;;;;;1.50;1.40;;;14.60;99.90;;;;;;5074529;28;20463;-62
2022/06/30 09:13:26;;;;;;;2.07;1.60;;;14.60;99.90;;;;;;5074656;28;20455;-62
2022/06/30 09:16:01;;;;;;;1.50;1.40;;;14.60;99.90;;;;;;5074478;28;20586;-62
2022/06/30 09:18:31;;;;;;;1.67;1.57;;;14.50;99.90;;;;;;5075110;28;20474;-62
2022/06/30 09:21:08;;;;;;;2.20;1.60;;;14.50;99.90;;;;;;5079408;28;20455;-63
2022/06/30 09:23:41;;;;;;;2.00;1.80;;;14.40;99.90;;;;;;5081841;28;20521;-62
2022/06/30 09:26:19;;;;;;;1.60;1.50;;;14.50;99.90;;;;;;5080912;28;20460;-62
2022/06/30 09:28:53;;;;;;;2.57;1.17;;;14.40;99.90;;;;;;5080467;28;20471;-63
2022/06/30 09:31:45;;;;;;;1.60;1.50;;;14.40;99.90;;;;;;5082287;28;20497;-62
2022/06/30 09:34:19;;;;;;;1.73;1.50;;;14.40;99.90;;;;;;5081543;28;20926;-62
2022/06/30 09:36:51;;;;;;;1.43;1.33;;;14.30;99.90;;;;;;5070900;28;20470;-62
2022/06/30 09:39:23;;;;;;;1.57;1.47;;;14.30;99.90;;;;;;5081381;28;20479;-62
2022/06/30 09:41:54;;;;;;;1.73;1.63;;;14.20;99.90;;;;;;5081673;28;20447;-62
2022/06/30 09:44:34;;;;;;;1.37;1.27;;;14.20;99.90;;;;;;5081922;28;20597;-62
2022/06/30 09:47:10;;;;;;;1.40;1.27;;;14.20;99.90;;;;;;5072398;28;20917;-62
2022/06/30 09:49:46;;;;;;;1.80;1.37;;;14.20;99.90;;;;;;5080809;28;20521;-62
2022/06/30 09:52:20;;;;;;;1.40;1.30;;;14.30;99.90;;;;;;5073339;28;20447;-62
2022/06/30 09:54:58;;;;;;;1.70;1.60;;;14.20;99.90;;;;;;5081063;28;20459;-62
2022/06/30 09:57:40;;;;;;;2.40;1.50;;;14.20;99.90;;;;;;5071262;28;20451;-62
2022/06/30 10:00:14;;;;;;;1.60;1.50;;;14.20;99.90;;;;;;5081038;28;20530;-62
2022/06/30 10:02:52;;;;;;;1.50;1.40;;;14.20;99.90;;;;;;5080603;28;20458;-62
2022/06/30 10:05:22;;;;;;;1.53;1.40;;;14.10;99.90;;;;;;5071711;28;20884;-62
2022/06/30 10:07:53;;;;;;;1.47;1.37;;;14.10;99.90;;;;;;5081190;28;20498;-62
2022/06/30 10:10:25;;;;;;;1.77;1.67;;;14.10;99.90;;;;;;5081430;28;20473;-62
2022/06/30 10:12:56;;;;;;;1.37;1.27;;;14.10;99.90;;;;;;5081043;28;20558;-62
2022/06/30 10:15:32;;;;;;;2.03;1.93;;;14.10;99.90;;;;;;5074950;28;20463;-62
2022/06/30 10:18:06;;;;;;;1.37;1.23;;;14.10;99.90;;;;;;5074614;28;20455;-62
2022/06/30 10:20:38;;;;;;;1.60;1.50;;;14.10;99.90;;;;;;5073808;28;20455;-62
2022/06/30 10:23:10;;;;;;;1.60;1.50;;;14.10;99.90;;;;;;5074999;28;20460;-62
2022/06/30 10:25:42;;;;;;;1.80;1.70;;;14.10;99.90;;;;;;5075136;28;20514;-62
2022/06/30 10:28:13;;;;;;;1.23;1.13;;;14.00;99.90;;;;;;5074550;28;20874;-62
2022/06/30 10:30:49;;;;;;;1.67;1.50;;;14.00;99.90;;;;;;5074738;28;20448;-62
2022/06/30 10:33:31;;;;;;;1.50;1.40;;;14.00;99.90;;;;;;5075163;28;20448;-62
2022/06/30 10:36:11;;;;;;;1.70;1.60;;;14.00;99.90;;;;;;5073841;28;20463;-62
2022/06/30 10:38:51;;;;;;;1.97;1.70;;;13.90;99.90;;;;;;5074079;28;20463;-62
2022/06/30 10:41:25;;;;;;;1.20;1.10;;;13.90;99.90;;;;;;5074361;28;20459;-62
2022/06/30 10:44:21;;;;;;;1.23;1.13;;;13.90;99.90;;;;;;5073801;28;20489;-62
2022/06/30 10:47:14;;;;;;;1.40;1.30;;;13.90;99.90;;;;;;5074242;28;20459;-62
2022/06/30 10:49:59;;;;;;;1.37;1.30;;;13.80;99.90;;;;;;5079832;28;20485;-62
2022/06/30 10:52:38;;;;;;;1.50;1.30;;;13.80;99.90;;;;;;5076471;28;20459;-62
2022/06/30 10:55:12;;;;;;;2.00;1.30;;;13.80;99.90;;;;;;5079850;28;20561;-62
2022/06/30 10:58:04;;;;;;;1.50;1.40;;;13.90;99.90;;;;;;5081894;28;20459;-62
2022/06/30 11:01:02;;;;;;;1.53;1.30;;;13.80;99.90;;;;;;5083520;28;20463;-62
2022/06/30 11:04:03;;;;;;;2.80;1.60;;;13.80;99.90;;;;;;5082246;28;20471;-63
2022/06/30 11:07:01;;;;;;;1.63;1.53;;;13.80;99.90;;;;;;5077436;28;20498;-62
2022/06/30 11:10:07;;;;;;;1.90;1.80;;;13.70;99.90;;;;;;5070880;28;20827;-62
2022/06/30 11:12:58;;;;;;;2.30;1.57;;;13.70;99.90;;;;;;5077661;28;20502;-62
2022/06/30 11:15:51;;;;;;;1.43;1.33;;;13.70;99.90;;;;;;5083169;28;20467;-62
2022/06/30 11:18:22;;;;;;;1.73;1.60;;;13.70;99.90;;;;;;5084409;28;20498;-63
2022/06/30 11:20:55;;;;;;;1.07;1.00;;;13.60;99.90;;;;;;5082036;28;20455;-62
2022/06/30 11:23:28;;;;;;;1.40;1.30;;;13.60;99.90;;;;;;5083050;28;20594;-62
2022/06/30 11:28:51;;;;;;;1.17;1.07;;;13.50;99.90;;;;;;5083104;28;20466;-62
2022/06/30 11:31:30;;;;;;;1.70;1.60;;;13.50;99.90;;;;;;5084010;28;20477;-62
2022/06/30 11:34:04;;;;;;;1.40;1.30;;;13.50;99.90;;;;;;5083335;28;20513;-62
2022/06/30 11:36:35;;;;;;;1.10;1.10;;;13.50;99.90;;;;;;5082744;28;20493;-62
2022/06/30 11:39:09;;;;;;;4.33;1.83;;;13.50;99.90;;;;;;5080047;28;20467;-62
2022/06/30 11:41:56;;;;;;;1.50;1.40;;;13.50;99.90;;;;;;5081223;28;20470;-62
2022/06/30 11:44:31;;;;;;;1.80;1.70;;;13.50;99.90;;;;;;5077952;28;20495;-62
2022/06/30 11:47:04;;;;;;;2.80;1.87;;;13.40;99.90;;;;;;5082061;28;20919;-63
2022/06/30 11:49:45;;;;;;;1.47;1.37;;;13.30;99.90;;;;;;5083812;28;20471;-62
2022/06/30 11:52:17;;;;;;;1.67;1.57;;;13.30;99.90;;;;;;5082516;28;20462;-62
2022/06/30 11:54:55;;;;;;;2.70;1.40;;;13.30;99.90;;;;;;5083766;28;20456;-63
2022/06/30 11:57:27;;;;;;;2.07;1.60;;;13.20;99.90;;;;;;5082159;28;20465;-63
2022/06/30 12:00:00;;;;;;;1.83;1.43;;;13.20;99.90;;;;;;5083000;28;20576;-63
2022/06/30 12:02:32;;;;;;;2.27;1.40;;;13.20;99.90;;;;;;5082581;28;20468;-63
2022/06/30 12:05:05;;;;;;;1.70;1.43;;;13.20;99.90;;;;;;5083132;28;20608;-63
2022/06/30 12:07:36;;;;;;;1.37;1.27;;;13.10;99.90;;;;;;5077183;28;20459;-62
2022/06/30 12:10:11;;;;;;;2.10;1.90;;;13.20;99.90;;;;;;5081740;28;20463;-62
2022/06/30 12:12:42;;;;;;;1.90;1.57;;;13.20;99.90;;;;;;5082271;28;20465;-63
2022/06/30 12:15:15;;;;;;;2.30;1.40;;;13.20;99.90;;;;;;5079233;28;20471;-62
2022/06/30 12:17:48;;;;;;;2.17;1.83;;;13.20;99.90;;;;;;5077460;28;22131;-63
2022/06/30 12:20:19;;;;;;;2.10;1.47;;;13.20;99.90;;;;;;5075345;28;20455;-62
2022/06/30 12:22:51;;;;;;;2.07;1.87;;;13.10;99.90;;;;;;5076722;28;20467;-62
2022/06/30 12:25:23;;;;;;;1.60;1.50;;;13.10;99.90;;;;;;5075608;28;20504;-63
2022/06/30 12:27:56;;;;;;;1.60;1.50;;;13.10;99.90;;;;;;5076662;28;20519;-62
2022/06/30 12:30:35;;;;;;;2.07;1.73;;;13.10;99.90;;;;;;5076856;28;20455;-62
2022/06/30 12:33:08;;;;;;;2.67;1.40;;;13.10;99.90;;;;;;5077032;28;20459;-62
2022/06/30 12:35:39;;;;;;;1.53;1.40;;;13.00;99.90;;;;;;5075674;28;20452;-62
2022/06/30 12:38:14;;;;;;;1.90;1.50;;;13.00;99.90;;;;;;5076381;28;20460;-62
2022/06/30 12:40:46;;;;;;;4.17;1.50;;;13.00;99.90;;;;;;5075600;28;20884;-62
2022/06/30 12:43:18;;;;;;;1.90;1.70;;;13.00;99.90;;;;;;5075761;28;20456;-61
2022/06/30 12:45:53;;;;;;;1.50;1.37;;;13.00;99.90;;;;;;5075637;28;20614;-62
2022/06/30 12:48:48;;;;;;;1.70;1.60;;;13.10;99.90;;;;;;5074913;28;20450;-62
2022/06/30 12:51:43;;;;;;;2.33;1.60;;;13.00;99.90;;;;;;5081440;28;20479;-62
2022/06/30 12:54:16;;;;;;;1.60;1.50;;;13.00;99.90;;;;;;5082553;28;20479;-62
2022/06/30 12:56:51;;;;;;;1.70;1.60;;;13.00;99.90;;;;;;5082476;28;20458;-62
2022/06/30 12:59:23;;;;;;;2.00;1.60;;;13.00;99.90;;;;;;5080852;28;20581;-62
2022/06/30 13:01:56;;;;;;;2.70;1.80;;;13.10;99.90;;;;;;5082086;28;20565;-62
2022/06/30 13:04:28;;;;;;;2.00;1.87;;;13.10;99.90;;;;;;5081928;28;20481;-62
2022/06/30 13:07:00;;;;;;;1.60;1.50;;;13.20;99.90;;;;;;5082049;28;20598;-62
2022/06/30 13:09:33;;;;;;;1.70;1.60;;;13.30;99.90;;;;;;5082037;28;20455;-62
2022/06/30 13:12:07;;;;;;;1.90;1.80;;;13.50;99.90;;;;;;5082882;28;20428;-62
2022/06/30 13:14:40;;;;;;;1.70;1.60;;;13.50;99.90;;;;;;5081683;28;20570;-62
2022/06/30 13:17:11;;;;;;;1.90;1.70;;;13.70;99.90;;;;;;5082354;28;20474;-62
2022/06/30 13:19:47;;;;;;;1.80;1.63;;;13.80;99.90;;;;;;5080944;28;20458;-61
2022/06/30 13:22:18;;;;;;;1.57;1.47;;;13.90;99.90;;;;;;5078383;28;20451;-62
2022/06/30 13:24:49;;;;;;;1.80;1.70;;;14.00;99.90;;;;;;5082056;28;20518;-62
2022/06/30 13:27:21;;;;;;;2.00;1.67;;;14.10;99.90;;;;;;5078362;28;20448;-62
2022/06/30 13:29:52;;;;;;;1.70;1.60;;;14.30;99.90;;;;;;5074066;28;20456;-61
2022/06/30 13:32:23;;;;;;;1.63;1.50;;;14.40;99.90;;;;;;5075655;28;20455;-61
2022/06/30 13:34:54;;;;;;;1.80;1.70;;;14.60;99.90;;;;;;5074937;28;20467;-61
2022/06/30 13:37:25;;;;;;;1.27;1.17;;;14.70;99.90;;;;;;5074555;28;20452;-61